Time;durP1;ratioP1;P1;durP2;ratioP2;P2;SDS_P1;SDS_P2;PMS_P1;PMS_P2;Temp;Humidity;BMP_temperature;BMP_pressure;BME280_temperature;BME280_humidity;BME280_pressure;Samples;Min_cycle;Max_cycle;Signal;HPM_P1;HPM_P2
2022/01/18 00:01:09;;;;;;;23.90;6.60;;;;;;;8.04;65.40;102945.13;5077806;28;20423;-69
2022/01/18 00:03:34;;;;;;;12.73;5.97;;;;;;;7.96;66.12;102953.31;5060121;28;20495;-69
2022/01/18 00:05:59;;;;;;;23.37;7.73;;;;;;;8.00;66.16;102958.75;5077998;28;20226;-70
2022/01/18 00:08:25;;;;;;;15.93;5.20;;;;;;;7.88;66.59;102963.25;5078700;28;20260;-69
2022/01/18 00:10:50;;;;;;;27.20;11.40;;;;;;;8.20;66.27;102958.94;5078348;28;20438;-68
2022/01/18 00:16:10;;;;;;;18.93;5.90;;;;;;;8.04;66.90;102957.22;5097957;28;20466;-69
2022/01/18 00:18:37;;;;;;;16.90;6.20;;;;;;;7.87;67.03;102961.47;5097898;28;20422;-69
2022/01/18 00:23:35;;;;;;;21.87;6.43;;;;;;;7.88;67.70;102974.53;5097748;28;20812;-70
2022/01/18 00:26:00;;;;;;;26.70;6.20;;;;;;;7.95;67.37;102973.19;5098402;28;20402;-67
2022/01/18 00:28:27;;;;;;;21.73;7.43;;;;;;;7.76;67.68;102977.31;5097821;28;20539;-69
2022/01/18 00:33:58;;;;;;;10.10;4.80;;;;;;;7.93;67.12;102987.78;5082177;28;20435;-66
2022/01/18 00:36:51;;;;;;;17.10;5.60;;;;;;;8.07;66.24;102999.84;5076973;28;20437;-65
2022/01/18 00:39:10;;;;;;;11.23;4.30;;;;;;;7.93;66.28;103005.97;5079746;28;20411;-68
2022/01/18 00:41:36;;;;;;;12.33;5.47;;;;;;;8.25;65.66;103015.59;5081238;28;20513;-68
2022/01/18 00:44:02;;;;;;;12.93;5.73;;;;;;;8.62;64.65;103006.34;5081043;28;20459;-64
2022/01/18 00:46:28;;;;;;;18.53;4.73;;;;;;;8.49;65.98;103022.97;5063645;28;20481;-69
2022/01/18 00:48:55;;;;;;;13.27;5.13;;;;;;;8.66;64.37;103018.72;5081570;28;20793;-66
2022/01/18 00:51:21;;;;;;;16.77;5.17;;;;;;;8.72;64.63;103018.13;5081364;28;20487;-65
2022/01/18 00:53:47;;;;;;;23.40;4.80;;;;;;;8.32;65.14;103010.72;5082281;28;20502;-67
2022/01/18 00:56:22;;;;;;;14.83;6.20;;;;;;;8.57;64.31;103006.09;5081875;28;20580;-67
2022/01/18 00:58:48;;;;;;;11.20;4.33;;;;;;;8.49;64.98;102999.56;5081513;28;20821;-71
2022/01/18 01:01:15;;;;;;;8.03;3.57;;;;;;;8.39;65.12;102999.88;5080747;28;20397;-66
2022/01/18 01:03:41;;;;;;;10.23;4.07;;;;;;;8.54;64.91;103002.44;5080871;28;20654;-66
2022/01/18 01:06:07;;;;;;;10.70;4.20;;;;;;;8.48;65.22;102996.91;5080568;28;20401;-68
2022/01/18 01:08:34;;;;;;;9.97;3.90;;;;;;;8.41;66.10;102993.91;5080962;28;20487;-66
2022/01/18 01:11:00;;;;;;;9.67;4.00;;;;;;;8.44;65.74;103003.59;5080604;28;20385;-68
2022/01/18 01:13:27;;;;;;;12.87;4.00;;;;;;;8.35;65.58;103000.47;5085835;28;20389;-68
2022/01/18 01:34:40;;;;;;;12.73;4.47;;;;;;;8.32;66.40;103010.72;5080183;28;20703;-69
2022/01/18 01:45:06;;;;;;;10.03;4.20;;;;;;;8.65;65.20;103021.22;5080531;28;20419;-70
2022/01/18 01:47:36;;;;;;;12.87;3.90;;;;;;;8.84;64.36;103028.31;5081473;28;20410;-68
2022/01/18 01:50:16;;;;;;;12.60;5.30;;;;;;;11.41;71.27;103010.22;5082023;28;20804;-61
2022/01/18 01:52:41;;;;;;;6.00;4.97;;;;;;;15.22;57.01;102983.25;5079589;28;20437;-61
2022/01/18 01:55:07;;;;;;;5.70;3.80;;;;;;;14.59;52.77;102989.34;5079725;28;20439;-67
2022/01/18 01:57:33;;;;;;;8.40;4.00;;;;;;;11.19;56.52;103005.78;5079815;28;20180;-68
2022/01/18 01:59:59;;;;;;;8.57;3.90;;;;;;;10.22;60.09;103012.69;5080263;28;20386;-71
2022/01/18 02:02:27;;;;;;;11.87;4.90;;;;;;;9.61;61.70;103011.47;5083773;28;20534;-71
2022/01/18 02:04:52;;;;;;;11.20;3.87;;;;;;;8.74;63.32;103016.50;5085603;28;20419;-70
2022/01/18 02:07:17;;;;;;;9.60;3.57;;;;;;;8.75;64.72;103013.09;5083824;28;20427;-69
2022/01/18 02:09:43;;;;;;;9.30;4.03;;;;;;;9.10;63.29;103014.06;5081068;28;20222;-66
2022/01/18 02:12:09;;;;;;;10.80;3.67;;;;;;;8.83;64.35;103023.91;5079333;28;20180;-66
2022/01/18 02:14:34;;;;;;;12.10;3.20;;;;;;;8.80;65.05;103029.84;5094931;28;20176;-66
2022/01/18 02:22:28;;;;;;;11.20;3.60;;;;;;;8.33;66.64;103031.59;5099669;28;20392;-67
2022/01/18 02:24:53;;;;;;;7.17;3.40;;;;;;;8.70;65.74;103023.25;5089107;28;20813;-67
2022/01/18 02:27:19;;;;;;;11.77;3.57;;;;;;;9.00;64.96;103024.78;5079555;28;20204;-67
2022/01/18 02:29:44;;;;;;;7.37;3.70;;;;;;;8.98;64.62;103042.94;5080213;28;20176;-68
2022/01/18 02:32:10;;;;;;;7.50;3.60;;;;;;;8.75;66.38;103029.59;5079643;28;20173;-67
2022/01/18 02:34:35;;;;;;;6.10;3.60;;;;;;;9.06;65.02;103038.16;5078835;28;20177;-67
2022/01/18 02:37:03;;;;;;;8.33;4.13;;;;;;;9.15;64.60;103038.63;5079091;28;20467;-67
2022/01/18 02:39:29;;;;;;;12.40;3.27;;;;;;;8.78;65.73;103036.66;5079392;28;20220;-68
2022/01/18 02:41:56;;;;;;;4.97;2.90;;;;;;;8.56;67.09;103039.81;5078850;28;20839;-67
2022/01/18 02:44:22;;;;;;;7.57;3.17;;;;;;;8.42;68.12;103039.00;5078588;28;20431;-68
2022/01/18 02:46:48;;;;;;;10.80;3.63;;;;;;;8.37;67.42;103035.25;5079146;28;20431;-67
2022/01/18 02:49:13;;;;;;;12.17;3.17;;;;;;;8.40;66.83;103038.03;5078629;28;20206;-67
2022/01/18 02:51:38;;;;;;;8.33;3.00;;;;;;;8.86;66.38;103032.78;5078652;28;20224;-67
2022/01/18 02:54:08;;;;;;;8.00;3.03;;;;;;;8.64;66.84;103041.13;5078934;28;20168;-67
2022/01/18 02:56:37;;;;;;;6.10;3.23;;;;;;;8.43;67.75;103036.50;5078431;28;20205;-69
2022/01/18 02:59:12;;;;;;;7.20;3.17;;;;;;;8.92;65.97;103038.31;5078707;28;20411;-68
2022/01/18 03:04:21;;;;;;;6.40;2.77;;;;;;;8.36;67.68;103026.56;5078444;28;20428;-68
2022/01/18 03:06:46;;;;;;;10.03;3.90;;;;;;;8.76;66.63;103030.50;5078288;28;20445;-67
2022/01/18 03:09:12;;;;;;;6.40;2.87;;;;;;;8.67;66.93;103032.59;5078308;28;20176;-67
2022/01/18 03:11:37;;;;;;;11.17;3.50;;;;;;;8.44;66.72;103034.78;5061561;28;20208;-68
2022/01/18 03:14:03;;;;;;;8.30;2.97;;;;;;;8.76;66.11;103040.91;5078313;28;20173;-68
2022/01/18 03:16:28;;;;;;;6.17;3.30;;;;;;;9.23;64.53;103033.84;5078179;28;20257;-68
2022/01/18 03:18:54;;;;;;;10.03;3.40;;;;;;;8.75;65.47;103040.00;5078785;28;20720;-68
2022/01/18 03:21:19;;;;;;;7.50;2.63;;;;;;;8.85;66.03;103035.28;5078390;28;20173;-68
2022/01/18 03:23:51;;;;;;;7.03;2.77;;;;;;;9.07;64.92;103027.81;5078083;28;20476;-68
2022/01/18 03:26:18;;;;;;;9.17;3.43;;;;;;;8.54;66.52;103031.94;5062054;28;20171;-68
2022/01/18 03:28:43;;;;;;;6.70;3.10;;;;;;;9.22;64.47;103034.66;5078142;28;20438;-68
2022/01/18 03:31:08;;;;;;;7.93;3.00;;;;;;;9.40;64.03;103039.91;5078023;28;20407;-68
2022/01/18 03:33:34;;;;;;;10.20;3.13;;;;;;;8.90;64.68;103045.16;5078427;28;20180;-68
2022/01/18 03:36:00;;;;;;;10.07;3.13;;;;;;;8.99;64.70;103042.13;5078061;28;20200;-68
2022/01/18 03:38:29;;;;;;;6.67;3.10;;;;;;;8.57;66.05;103049.41;5077877;28;20419;-68
2022/01/18 03:41:00;;;;;;;5.70;2.80;;;;;;;9.24;64.39;103043.41;5078521;28;20189;-67
2022/01/18 03:43:26;;;;;;;8.40;2.73;;;;;;;9.33;64.23;103046.50;5077890;28;20506;-68
2022/01/18 03:45:54;;;;;;;3.80;2.63;;;;;;;9.15;64.32;103045.56;5077931;28;20481;-68
2022/01/18 03:48:55;;;;;;;8.93;2.93;;;;;;;9.14;64.57;103043.75;5061639;28;20242;-67
2022/01/18 03:51:13;;;;;;;7.10;2.73;;;;;;;9.21;64.71;103051.06;5074583;28;20428;-68
2022/01/18 03:53:38;;;;;;;6.07;2.90;;;;;;;9.06;64.80;103046.84;5077970;28;20418;-67
2022/01/18 03:56:03;;;;;;;8.93;3.33;;;;;;;8.92;66.41;103060.84;5077640;28;20204;-67
2022/01/18 03:58:29;;;;;;;8.00;2.87;;;;;;;9.42;64.02;103061.72;5077997;28;20260;-69
2022/01/18 04:00:54;;;;;;;5.27;3.60;;;;;;;8.77;65.84;103063.50;5078400;28;20199;-68
2022/01/18 04:03:20;;;;;;;8.47;3.23;;;;;;;9.06;65.26;103064.16;5077629;28;20173;-68
2022/01/18 04:05:46;;;;;;;11.23;3.10;;;;;;;9.19;64.30;103060.53;5077903;28;20180;-68
2022/01/18 04:08:11;;;;;;;11.73;3.97;;;;;;;9.59;63.49;103058.28;5078351;28;20432;-68
2022/01/18 04:10:37;;;;;;;6.10;2.77;;;;;;;9.48;63.28;103061.13;5077854;28;20390;-68
2022/01/18 04:13:02;;;;;;;10.40;3.20;;;;;;;9.00;64.71;103059.53;5079933;28;20169;-67
2022/01/18 04:15:29;;;;;;;4.60;2.70;;;;;;;8.82;65.59;103053.34;5082052;28;20172;-67
2022/01/18 04:18:12;;;;;;;7.53;4.03;;;;;;;9.42;64.45;103061.72;5081559;28;20256;-67
2022/01/18 04:26:55;;;;;;;12.77;2.90;;;;;;;8.81;65.70;103065.44;5081520;28;20400;-67
2022/01/18 04:28:56;;;;;;;4.77;3.00;;;;;;;9.07;64.14;103068.56;5081183;28;20394;-68
2022/01/18 04:31:22;;;;;;;5.27;2.83;;;;;;;9.05;63.97;103064.97;5081551;28;20787;-67
2022/01/18 04:33:47;;;;;;;6.03;2.87;;;;;;;9.08;64.26;103066.03;5063732;28;20447;-67
2022/01/18 04:36:13;;;;;;;7.83;3.10;;;;;;;9.49;63.24;103066.41;5081146;28;20466;-67
2022/01/18 04:38:38;;;;;;;5.07;2.67;;;;;;;8.64;65.29;103067.13;5081619;28;20165;-68
2022/01/18 04:41:07;;;;;;;5.97;3.20;;;;;;;8.92;64.92;103061.72;5080990;28;20271;-69
2022/01/18 04:44:06;;;;;;;3.60;2.50;;;;;;;9.02;64.36;103065.69;5080825;28;20280;-68
2022/01/18 04:49:15;;;;;;;4.80;2.63;;;;;;;8.88;65.22;103072.75;5081128;28;20417;-68
2022/01/18 04:51:41;;;;;;;5.00;3.00;;;;;;;9.02;64.19;103075.22;5080824;28;20450;-68
2022/01/18 04:54:08;;;;;;;8.00;3.10;;;;;;;9.40;62.99;103078.94;5080826;28;20264;-68
2022/01/18 04:59:01;;;;;;;6.40;3.40;;;;;;;9.44;63.27;103091.31;5088087;28;20484;-69
2022/01/18 05:01:26;;;;;;;8.63;2.87;;;;;;;9.44;63.32;103092.22;5080798;28;20393;-67
2022/01/18 05:03:52;;;;;;;6.23;2.77;;;;;;;9.23;63.48;103096.31;5081035;28;20770;-69
2022/01/18 05:06:18;;;;;;;5.23;3.00;;;;;;;9.12;64.36;103095.72;5082956;28;20191;-69
2022/01/18 05:08:43;;;;;;;8.47;3.90;;;;;;;8.98;65.51;103100.16;5082992;28;20164;-68
2022/01/18 05:11:13;;;;;;;7.40;3.17;;;;;;;9.33;65.40;103102.88;5083920;28;20786;-68
2022/01/18 05:14:03;;;;;;;5.23;2.93;;;;;;;9.09;66.41;103109.47;5081064;28;20172;-68
2022/01/18 05:24:23;;;;;;;7.20;3.60;;;;;;;8.56;70.52;103117.81;5080252;28;20806;-69
2022/01/18 05:26:49;;;;;;;5.13;3.63;;;;;;;8.71;71.10;103126.47;5080290;28;20424;-68
2022/01/18 05:29:14;;;;;;;9.40;3.33;;;;;;;8.91;70.77;103118.88;5080260;28;20392;-69
2022/01/18 05:31:40;;;;;;;16.93;4.20;;;;;;;8.76;71.49;103125.00;5080511;28;20286;-68
2022/01/18 05:34:05;;;;;;;8.43;4.33;;;;;;;8.40;73.48;103127.31;5080643;28;20252;-68
2022/01/18 05:36:31;;;;;;;7.13;3.10;;;;;;;8.70;72.59;103127.28;5080193;28;20217;-67
2022/01/18 05:38:56;;;;;;;8.33;3.50;;;;;;;8.67;72.46;103116.69;5080000;28;20172;-68
2022/01/18 05:41:21;;;;;;;10.53;4.10;;;;;;;8.60;72.97;103111.97;5063179;28;20436;-68
2022/01/18 05:43:47;;;;;;;9.47;3.80;;;;;;;8.73;72.04;103111.84;5079843;28;20435;-68
2022/01/18 05:46:12;;;;;;;9.87;4.37;;;;;;;8.83;72.76;103107.16;5080032;28;20473;-67
2022/01/18 05:48:38;;;;;;;7.70;3.63;;;;;;;8.75;72.85;103115.44;5080343;28;20169;-68
2022/01/18 05:51:03;;;;;;;7.73;4.20;;;;;;;8.51;74.07;103116.63;5079845;28;20169;-68
2022/01/18 05:53:34;;;;;;;13.37;4.50;;;;;;;8.75;73.72;103122.31;5099944;28;20187;-68
2022/01/18 05:56:00;;;;;;;10.70;4.40;;;;;;;9.07;72.14;103121.50;5100264;28;20279;-68
2022/01/18 05:58:25;;;;;;;9.93;4.97;;;;;;;9.23;71.61;103122.34;5099965;28;20429;-68
2022/01/18 06:00:54;;;;;;;10.73;4.10;;;;;;;8.67;73.32;103123.59;5099756;28;20175;-68
2022/01/18 06:03:28;;;;;;;8.87;5.13;;;;;;;8.87;73.39;103129.91;5099988;28;20251;-67
2022/01/18 06:08:39;;;;;;;13.83;4.87;;;;;;;8.89;73.63;103128.28;5099825;28;20421;-68
2022/01/18 06:11:04;;;;;;;17.20;5.40;;;;;;;8.41;76.97;103126.47;5099548;28;20396;-68
2022/01/18 06:13:30;;;;;;;13.83;4.90;;;;;;;8.69;75.06;103127.19;5099823;28;20172;-68
2022/01/18 06:15:55;;;;;;;12.87;5.97;;;;;;;8.70;75.54;103128.97;5100445;28;20192;-69
2022/01/18 06:18:22;;;;;;;12.00;5.70;;;;;;;8.80;75.34;103131.28;5099457;28;20180;-67
2022/01/18 06:20:47;;;;;;;11.73;5.80;;;;;;;8.92;74.50;103125.88;5099481;28;20172;-68
2022/01/18 06:23:13;;;;;;;15.93;5.80;;;;;;;8.97;74.78;103133.91;5099441;28;20389;-68
2022/01/18 06:25:40;;;;;;;15.83;7.07;;;;;;;8.75;75.08;103144.03;5099251;28;20441;-68
2022/01/18 06:28:05;;;;;;;15.73;6.60;;;;;;;8.61;75.42;103146.69;5099210;28;20509;-68
2022/01/18 06:30:30;;;;;;;13.07;6.33;;;;;;;9.07;74.50;103137.09;5099506;28;20425;-68
2022/01/18 06:32:56;;;;;;;15.20;6.97;;;;;;;9.12;73.91;103144.25;5099116;28;20176;-69
2022/01/18 06:35:21;;;;;;;17.60;7.40;;;;;;;8.75;75.95;103141.44;5098378;28;20219;-68
2022/01/18 06:37:46;;;;;;;17.80;6.60;;;;;;;9.20;74.69;103132.56;5099403;28;20176;-67
2022/01/18 06:40:12;;;;;;;15.10;6.80;;;;;;;9.05;75.42;103138.75;5098849;28;20173;-67
2022/01/18 06:42:38;;;;;;;13.80;7.20;;;;;;;9.09;74.42;103137.19;5098734;28;20226;-68
2022/01/18 06:45:04;;;;;;;22.37;7.40;;;;;;;9.02;74.91;103141.16;5099508;28;20447;-67
2022/01/18 06:47:29;;;;;;;10.57;6.43;;;;;;;9.05;75.28;103141.34;5098733;28;20385;-67
2022/01/18 06:49:54;;;;;;;17.30;6.40;;;;;;;9.15;74.88;103149.66;5098583;28;20389;-67
2022/01/18 06:52:20;;;;;;;15.17;7.00;;;;;;;9.44;73.74;103148.59;5087809;28;20223;-68
2022/01/18 06:54:46;;;;;;;22.23;7.60;;;;;;;9.14;74.35;103153.94;5078259;28;20196;-67
2022/01/18 06:57:11;;;;;;;21.27;9.50;;;;;;;9.00;75.24;103160.09;5078491;28;20196;-67
2022/01/18 06:59:36;;;;;;;19.73;7.00;;;;;;;9.25;74.04;103157.13;5078454;28;20397;-68
2022/01/18 07:02:02;;;;;;;22.67;7.97;;;;;;;9.36;73.95;103163.81;5078252;28;20221;-69
2022/01/18 07:04:28;;;;;;;20.10;8.57;;;;;;;9.20;74.16;103158.59;5078392;28;20238;-68
2022/01/18 07:06:53;;;;;;;20.87;8.50;;;;;;;9.16;74.52;103162.75;5077931;28;20465;-67
2022/01/18 07:09:23;;;;;;;23.53;8.00;;;;;;;9.21;73.90;103163.88;5078190;28;20173;-67
2022/01/18 07:11:49;;;;;;;24.17;9.30;;;;;;;8.92;75.53;103163.16;5061866;28;20164;-68
2022/01/18 07:14:14;;;;;;;16.23;6.90;;;;;;;8.74;76.18;103173.44;5078041;28;20438;-69
2022/01/18 07:16:39;;;;;;;21.20;8.20;;;;;;;8.88;75.50;103173.34;5078152;28;20557;-68
2022/01/18 07:19:05;;;;;;;23.97;7.87;;;;;;;9.43;73.59;103163.34;5078779;28;20271;-68
2022/01/18 07:21:30;;;;;;;21.20;6.70;;;;;;;8.93;74.86;103170.19;5078130;28;20173;-68
2022/01/18 07:24:03;;;;;;;27.07;8.20;;;;;;;9.17;74.42;103182.72;5078266;28;20180;-69
2022/01/18 07:26:29;;;;;;;31.03;13.80;;;;;;;9.47;73.47;103173.91;5078562;28;20157;-68
2022/01/18 07:28:55;;;;;;;21.17;9.37;;;;;;;9.24;73.75;103182.28;5078105;28;20408;-68
2022/01/18 07:31:20;;;;;;;25.03;7.30;;;;;;;9.31;73.78;103182.59;5078223;28;20169;-67
2022/01/18 07:33:45;;;;;;;34.53;9.60;;;;;;;9.16;74.20;103190.47;5078081;28;20252;-70
2022/01/18 07:36:10;;;;;;;24.03;7.93;;;;;;;9.27;74.05;103184.16;5077978;28;20492;-68
2022/01/18 07:38:36;;;;;;;19.47;7.43;;;;;;;9.41;73.95;103185.78;5078149;28;20418;-69
2022/01/18 07:41:02;;;;;;;25.30;9.13;;;;;;;9.24;73.45;103181.34;5078469;28;20224;-68
2022/01/18 07:43:27;;;;;;;16.73;6.70;;;;;;;9.22;74.05;103183.88;5077893;28;20160;-68
2022/01/18 07:45:53;;;;;;;17.87;7.03;;;;;;;9.33;73.54;103187.06;5076929;28;20422;-67
2022/01/18 07:48:21;;;;;;;26.63;8.00;;;;;;;9.11;73.83;103195.41;5081063;28;20258;-68
2022/01/18 07:50:47;;;;;;;24.97;7.90;;;;;;;9.09;74.29;103192.75;5082058;28;20431;-68
2022/01/18 07:53:12;;;;;;;27.87;9.37;;;;;;;9.13;74.20;103192.91;5081745;28;20473;-68
2022/01/18 07:55:37;;;;;;;26.57;10.63;;;;;;;9.60;73.28;103184.16;5082480;28;20157;-69
2022/01/18 07:58:03;;;;;;;19.03;8.57;;;;;;;9.19;74.19;103182.84;5082007;28;20165;-69
2022/01/18 08:00:29;;;;;;;26.70;8.90;;;;;;;9.36;73.58;103187.25;5081847;28;20168;-68
2022/01/18 08:02:54;;;;;;;18.43;7.80;;;;;;;8.93;75.02;103187.50;5082219;28;20161;-68
2022/01/18 08:05:19;;;;;;;25.17;8.30;;;;;;;8.95;76.15;103190.19;5081657;28;20411;-68
2022/01/18 08:07:45;;;;;;;25.93;10.60;;;;;;;8.98;75.78;103195.56;5082552;28;20161;-68
2022/01/18 08:10:12;;;;;;;19.20;7.17;;;;;;;9.36;74.21;103192.47;5087486;28;20196;-70
2022/01/18 08:12:39;;;;;;;30.27;10.10;;;;;;;9.56;73.65;103188.31;5083105;28;20215;-68
2022/01/18 08:15:15;;;;;;;23.50;8.80;;;;;;;8.96;75.73;103195.47;5083023;28;20378;-68
2022/01/18 08:17:43;;;;;;;8.57;5.53;;;;;;;12.73;73.06;103181.25;5066041;28;20462;-61
2022/01/18 08:20:13;;;;;;;18.40;6.80;;;;;;;12.05;67.95;103191.53;5083952;28;20434;-62
2022/01/18 08:22:39;;;;;;;25.97;7.07;;;;;;;14.42;63.11;103178.69;5088970;28;20419;-64
2022/01/18 08:25:05;;;;;;;14.97;5.93;;;;;;;14.06;61.20;103184.47;5096462;28;20405;-69
2022/01/18 08:27:30;;;;;;;15.10;6.77;;;;;;;11.20;66.10;103200.78;5101540;28;20422;-69
2022/01/18 08:29:55;;;;;;;20.50;6.80;;;;;;;10.52;68.54;103206.25;5081534;28;20499;-70
2022/01/18 08:32:22;;;;;;;24.77;7.37;;;;;;;9.61;72.26;103205.06;5081118;28;20180;-71
2022/01/18 08:34:48;;;;;;;13.73;6.07;;;;;;;9.58;73.23;103211.84;5081076;28;20226;-71
2022/01/18 08:37:13;;;;;;;19.97;8.13;;;;;;;9.75;72.71;103217.94;5091032;28;20444;-69
2022/01/18 08:39:39;;;;;;;23.50;7.37;;;;;;;9.86;72.61;103215.91;5101549;28;20202;-71
2022/01/18 08:42:05;;;;;;;17.03;6.40;;;;;;;9.40;73.44;103217.84;5101394;28;20203;-70
2022/01/18 08:44:30;;;;;;;13.13;6.30;;;;;;;9.24;74.32;103218.72;5101563;28;20393;-70
2022/01/18 08:46:55;;;;;;;23.80;8.17;;;;;;;9.18;74.66;103225.28;5083557;28;20537;-70
2022/01/18 08:49:20;;;;;;;18.80;6.30;;;;;;;9.04;75.42;103233.22;5101168;28;20172;-70
2022/01/18 08:51:46;;;;;;;17.67;6.80;;;;;;;9.40;73.95;103223.06;5101177;28;20235;-68
2022/01/18 08:54:11;;;;;;;21.50;6.57;;;;;;;9.45;73.56;103228.50;5092630;28;20550;-70
2022/01/18 08:56:36;;;;;;;21.30;6.87;;;;;;;9.28;73.94;103224.97;5080825;28;20200;-69
2022/01/18 08:59:02;;;;;;;25.00;7.37;;;;;;;9.72;72.25;103228.19;5080417;28;20184;-71
2022/01/18 09:01:27;;;;;;;20.00;7.37;;;;;;;9.44;72.99;103238.03;5080832;28;20176;-70
2022/01/18 09:03:53;;;;;;;24.53;7.87;;;;;;;9.43;73.02;103238.84;5081408;28;20259;-70
2022/01/18 09:06:18;;;;;;;16.80;6.40;;;;;;;9.91;71.91;103236.16;5081135;28;20222;-69
2022/01/18 09:08:45;;;;;;;18.77;6.80;;;;;;;9.75;72.03;103236.16;5064257;28;20196;-70
2022/01/18 09:11:11;;;;;;;20.70;6.70;;;;;;;9.80;71.68;103241.66;5081915;28;20176;-69
2022/01/18 09:13:37;;;;;;;17.17;6.70;;;;;;;9.60;72.32;103249.28;5080508;28;20398;-69
2022/01/18 09:16:06;;;;;;;21.20;7.97;;;;;;;9.27;74.07;103247.50;5080429;28;20209;-68
2022/01/18 09:18:31;;;;;;;21.97;6.20;;;;;;;9.25;74.06;103250.84;5081033;28;20460;-68
2022/01/18 09:20:56;;;;;;;23.47;5.97;;;;;;;9.05;74.54;103255.84;5080389;28;20419;-67
2022/01/18 09:23:22;;;;;;;17.00;5.80;;;;;;;8.87;75.47;103254.78;5080348;28;20233;-68
2022/01/18 09:25:48;;;;;;;18.03;6.63;;;;;;;9.18;74.75;103247.00;5080937;28;20165;-68
2022/01/18 09:28:13;;;;;;;18.50;6.10;;;;;;;9.43;73.66;103256.16;5088511;28;20263;-68
2022/01/18 09:30:39;;;;;;;20.50;6.20;;;;;;;8.78;75.90;103257.72;5102516;28;20724;-68
2022/01/18 09:33:06;;;;;;;19.03;5.60;;;;;;;8.87;74.98;103262.59;5101489;28;20213;-68
2022/01/18 09:35:34;;;;;;;15.80;5.43;;;;;;;9.26;74.24;103268.25;5100403;28;20168;-69
2022/01/18 09:37:59;;;;;;;17.07;5.93;;;;;;;9.64;72.24;103264.25;5100721;28;20418;-67
2022/01/18 09:40:25;;;;;;;20.10;8.27;;;;;;;9.75;72.13;103270.03;5100685;28;20487;-69
2022/01/18 09:42:56;;;;;;;15.43;5.70;;;;;;;9.51;72.16;103272.19;5100369;28;20172;-70
2022/01/18 09:45:24;;;;;;;18.70;6.03;;;;;;;9.45;72.54;103280.56;5100267;28;20176;-70
2022/01/18 09:47:51;;;;;;;19.60;6.17;;;;;;;9.10;73.75;103284.69;5100729;28;20417;-69
2022/01/18 09:50:23;;;;;;;17.00;5.77;;;;;;;9.55;72.91;103282.88;5100154;28;20397;-71
2022/01/18 09:52:53;;;;;;;20.87;6.07;;;;;;;9.56;72.00;103289.88;5096996;28;20458;-71
2022/01/18 09:55:20;;;;;;;13.43;5.67;;;;;;;9.19;73.08;103286.94;5120564;28;20384;-70
2022/01/18 09:57:45;;;;;;;19.40;6.27;;;;;;;9.23;73.29;103292.41;5120378;28;20484;-70
2022/01/18 10:00:11;;;;;;;12.10;5.10;;;;;;;9.47;71.59;103288.47;5120695;28;20818;-68
2022/01/18 10:02:37;;;;;;;19.03;6.27;;;;;;;9.41;72.48;103289.91;5120122;28;20190;-67
2022/01/18 10:05:16;;;;;;;15.20;4.90;;;;;;;9.64;71.92;103285.09;5120334;28;20175;-67
2022/01/18 10:07:42;;;;;;;17.87;6.30;;;;;;;9.76;71.19;103292.69;5102485;28;20224;-68
2022/01/18 10:10:08;;;;;;;14.73;5.13;;;;;;;9.75;70.81;103296.97;5119265;28;20417;-69
2022/01/18 10:12:33;;;;;;;16.23;5.37;;;;;;;9.81;70.54;103291.22;5120432;28;20177;-69
2022/01/18 10:15:00;;;;;;;15.63;4.87;;;;;;;9.53;70.87;103283.63;5120103;28;20176;-69
2022/01/18 10:17:28;;;;;;;13.73;5.27;;;;;;;9.81;70.42;103279.88;5102096;28;20476;-69
2022/01/18 10:19:54;;;;;;;9.40;4.50;;;;;;;9.05;71.87;103275.72;5120207;28;20662;-70
2022/01/18 10:22:24;;;;;;;13.70;4.77;;;;;;;9.74;69.91;103276.06;5119905;28;20412;-66
2022/01/18 10:24:52;;;;;;;12.37;4.93;;;;;;;9.65;70.23;103279.06;5119723;28;20183;-72
2022/01/18 10:27:18;;;;;;;14.40;5.53;;;;;;;9.93;69.54;103284.06;5119808;28;20402;-72
2022/01/18 10:29:47;;;;;;;13.03;5.10;;;;;;;10.19;69.01;103278.41;5099378;28;20413;-72
2022/01/18 10:32:30;;;;;;;13.67;4.83;;;;;;;9.98;68.86;103283.41;5099485;28;20385;-70
2022/01/18 10:37:29;;;;;;;13.67;5.67;;;;;;;9.94;69.12;103290.16;5098960;28;20508;-68
2022/01/18 10:40:00;;;;;;;12.47;4.97;;;;;;;10.26;68.40;103290.97;5098921;28;20221;-66
2022/01/18 10:42:32;;;;;;;13.10;5.70;;;;;;;10.34;67.27;103287.03;5099021;28;20425;-67
2022/01/18 10:45:05;;;;;;;9.90;4.87;;;;;;;10.31;67.83;103284.28;5099149;28;20385;-67
2022/01/18 10:47:32;;;;;;;16.13;5.20;;;;;;;10.27;67.41;103277.13;5098821;28;20398;-65
2022/01/18 10:50:14;;;;;;;11.70;5.70;;;;;;;10.10;67.74;103279.72;5098918;28;20414;-69
2022/01/18 10:52:40;;;;;;;12.07;4.80;;;;;;;10.33;67.91;103276.53;5080884;28;20489;-69
2022/01/18 10:55:07;;;;;;;15.40;4.83;;;;;;;10.37;66.57;103271.56;5098875;28;20472;-69
2022/01/18 10:57:38;;;;;;;11.03;5.00;;;;;;;10.61;66.45;103273.66;5064598;28;20219;-70
2022/01/18 11:00:22;;;;;;;11.40;3.80;;;;;;;9.74;68.56;103271.75;5099375;28;20518;-68
2022/01/18 11:02:51;;;;;;;16.60;4.90;;;;;;;10.15;67.39;103256.50;5098822;28;20449;-68
2022/01/18 11:05:20;;;;;;;11.80;7.07;;;;;;;13.34;64.63;103240.41;5098530;28;20424;-63
2022/01/18 11:07:48;;;;;;;11.03;5.27;;;;;;;15.86;59.83;103234.72;5098633;28;20452;-64
2022/01/18 11:10:15;;;;;;;11.00;4.60;;;;;;;11.43;61.52;103247.16;5103038;28;20429;-70
2022/01/18 11:12:56;;;;;;;11.03;4.63;;;;;;;11.46;62.81;103249.03;5119183;28;20388;-69
2022/01/18 11:15:24;;;;;;;8.20;3.83;;;;;;;10.00;66.77;103246.19;5122989;28;20417;-69
2022/01/18 11:17:56;;;;;;;9.63;4.57;;;;;;;10.24;67.18;103240.44;5122989;28;20526;-70
2022/01/18 11:20:22;;;;;;;14.37;5.00;;;;;;;10.11;67.38;103231.09;5122411;28;20421;-71
2022/01/18 11:22:49;;;;;;;11.50;4.50;;;;;;;9.59;69.32;103237.06;5118985;28;20392;-70
2022/01/18 11:25:14;;;;;;;11.60;4.50;;;;;;;10.50;66.59;103230.47;5119124;28;20203;-70
2022/01/18 11:27:43;;;;;;;8.63;4.20;;;;;;;10.21;67.17;103228.13;5119049;28;20506;-71
2022/01/18 11:30:09;;;;;;;11.73;4.93;;;;;;;10.11;67.71;103234.59;5118793;28;20181;-71
2022/01/18 11:32:35;;;;;;;15.60;4.40;;;;;;;10.50;66.96;103234.00;5118457;28;20394;-70
2022/01/18 11:35:10;;;;;;;11.93;4.30;;;;;;;10.53;67.38;103231.53;5118724;28;20388;-69
2022/01/18 11:37:51;;;;;;;13.70;5.63;;;;;;;10.30;66.64;103227.72;5100650;28;20510;-71
2022/01/18 11:40:17;;;;;;;10.00;4.40;;;;;;;10.24;66.94;103232.63;5101008;28;20396;-71
2022/01/18 11:42:56;;;;;;;8.97;4.60;;;;;;;10.40;66.89;103226.50;5118416;28;20492;-69
2022/01/18 11:45:24;;;;;;;9.10;4.43;;;;;;;10.55;66.02;103232.50;5118516;28;20384;-72
2022/01/18 11:48:05;;;;;;;12.20;4.47;;;;;;;9.72;67.98;103228.19;5118490;28;20413;-71
2022/01/18 11:50:33;;;;;;;15.07;3.80;;;;;;;9.53;68.56;103228.94;5118424;28;20448;-68
2022/01/18 11:53:26;;;;;;;9.10;4.30;;;;;;;9.81;68.66;103233.91;5103945;28;20886;-71
2022/01/18 11:55:57;;;;;;;7.80;3.13;;;;;;;9.88;67.23;103230.81;5097868;28;20458;-70
2022/01/18 11:58:23;;;;;;;7.40;3.60;;;;;;;9.88;66.97;103220.38;5097895;28;20854;-70
2022/01/18 12:01:00;;;;;;;5.03;3.13;;;;;;;9.43;67.53;103219.69;5098022;28;20474;-70
2022/01/18 12:03:42;;;;;;;7.67;3.70;;;;;;;10.19;66.17;103221.06;5097953;28;20446;-70
2022/01/18 12:06:08;;;;;;;10.93;4.23;;;;;;;10.08;66.52;103224.03;5097664;28;20420;-70
2022/01/18 12:08:37;;;;;;;11.27;4.40;;;;;;;9.89;67.39;103223.88;5098047;28;20399;-71
2022/01/18 12:11:04;;;;;;;7.57;3.40;;;;;;;10.15;67.01;103221.72;5097847;28;20414;-72
2022/01/18 12:13:35;;;;;;;6.90;3.63;;;;;;;9.94;66.46;103227.63;5099480;28;20713;-67
2022/01/18 12:16:03;;;;;;;6.30;3.80;;;;;;;9.29;68.78;103231.09;5098102;28;20454;-68
2022/01/18 12:18:31;;;;;;;11.33;3.70;;;;;;;10.00;66.83;103234.84;5098053;28;20414;-69
2022/01/18 12:20:59;;;;;;;6.60;3.80;;;;;;;9.65;67.90;103221.78;5097848;28;20824;-68
2022/01/18 12:23:26;;;;;;;6.20;3.47;;;;;;;10.01;67.27;103215.81;5097599;28;20422;-67
2022/01/18 12:26:03;;;;;;;4.30;3.70;;;;;;;9.71;68.29;103221.19;5079958;28;20653;-69
2022/01/18 12:29:07;;;;;;;8.30;3.77;;;;;;;9.26;70.04;103216.19;5097877;28;20381;-71
2022/01/18 12:34:28;;;;;;;7.10;3.83;;;;;;;9.61;68.70;103214.59;5100340;28;20430;-69
2022/01/18 12:36:57;;;;;;;6.43;3.60;;;;;;;9.46;69.68;103221.56;5101436;28;20465;-70
2022/01/18 12:39:23;;;;;;;7.10;3.30;;;;;;;8.65;71.28;103226.66;5101019;28;20751;-69